createdAt,value
2022-08-16T00:02:21.017Z,61.80
2022-08-16T00:04:47.797Z,61.50
2022-08-16T00:07:18.394Z,61.80
2022-08-16T00:09:45.450Z,62.10
2022-08-16T00:12:17.989Z,61.80
2022-08-16T00:14:45.502Z,61.70
2022-08-16T00:17:18.714Z,62.40
2022-08-16T00:19:47.387Z,62.20
2022-08-16T00:22:15.965Z,62.20
2022-08-16T00:24:44.857Z,62.60
2022-08-16T00:27:15.075Z,62.70
2022-08-16T00:29:42.311Z,63.10
2022-08-16T00:32:11.006Z,62.80
2022-08-16T00:34:44.498Z,63.00
2022-08-16T00:37:20.818Z,62.60
2022-08-16T00:39:57.168Z,63.90
2022-08-16T00:42:29.757Z,63.40
2022-08-16T00:45:06.519Z,62.60
2022-08-16T00:47:37.022Z,62.50
2022-08-16T00:50:05.348Z,62.50
2022-08-16T00:52:38.624Z,63.60
2022-08-16T00:55:12.859Z,63.20
2022-08-16T00:57:58.881Z,63.30
2022-08-16T01:00:29.492Z,63.40
2022-08-16T01:02:57.922Z,63.10
2022-08-16T01:05:24.981Z,62.80
2022-08-16T01:07:53.605Z,62.80
2022-08-16T01:10:21.342Z,63.30
2022-08-16T01:13:06.208Z,63.30
2022-08-16T01:15:34.225Z,63.70
2022-08-16T01:18:02.880Z,63.70
2022-08-16T01:20:34.598Z,63.90
2022-08-16T01:23:08.845Z,63.70
2022-08-16T01:25:40.711Z,63.40
2022-08-16T01:28:19.785Z,63.40
2022-08-16T01:30:52.039Z,63.70
2022-08-16T01:33:19.907Z,63.60
2022-08-16T01:35:53.710Z,64.10
2022-08-16T01:38:28.278Z,63.50
2022-08-16T01:41:02.246Z,64.00
2022-08-16T01:43:29.429Z,64.30
2022-08-16T01:46:00.657Z,64.10
2022-08-16T01:48:47.707Z,64.30
2022-08-16T01:51:18.985Z,63.90
2022-08-16T01:53:55.231Z,64.40
2022-08-16T01:56:26.032Z,64.10
2022-08-16T01:58:55.205Z,63.90
2022-08-16T02:01:23.094Z,63.70
2022-08-16T02:03:52.963Z,64.30
2022-08-16T02:06:33.915Z,64.60
2022-08-16T02:09:05.174Z,64.80
2022-08-16T02:11:48.354Z,65.10
2022-08-16T02:14:21.537Z,64.10
2022-08-16T02:16:48.585Z,64.20
2022-08-16T02:19:16.209Z,64.30
2022-08-16T02:22:09.003Z,63.80
2022-08-16T02:24:32.783Z,64.20
2022-08-16T02:27:09.951Z,64.30
2022-08-16T02:29:37.541Z,64.20
2022-08-16T02:32:50.148Z,64.30
2022-08-16T02:34:56.461Z,63.50
2022-08-16T02:37:23.505Z,64.80
2022-08-16T02:39:54.188Z,64.80
2022-08-16T02:42:22.458Z,64.60
2022-08-16T02:44:49.300Z,64.40
2022-08-16T02:47:24.937Z,64.30
2022-08-16T02:50:25.823Z,63.90
2022-08-16T02:52:39.466Z,64.00
2022-08-16T02:55:11.423Z,63.90
2022-08-16T02:57:42.343Z,64.20
2022-08-16T03:00:33.754Z,64.10
2022-08-16T03:03:03.500Z,63.90
2022-08-16T03:05:31.073Z,64.20
2022-08-16T03:07:58.688Z,63.90
2022-08-16T03:10:33.555Z,64.60
2022-08-16T03:13:02.476Z,65.10
2022-08-16T03:15:30.758Z,65.40
2022-08-16T03:17:58.138Z,64.50
2022-08-16T03:20:32.126Z,64.60
2022-08-16T03:23:00.114Z,64.40
2022-08-16T03:25:44.231Z,64.30
2022-08-16T03:28:13.005Z,64.10
2022-08-16T03:30:39.970Z,64.30
2022-08-16T03:33:07.506Z,64.40
2022-08-16T03:35:40.137Z,64.60
2022-08-16T03:38:34.358Z,64.70
2022-08-16T03:40:58.387Z,64.70
2022-08-16T03:43:51.121Z,64.70
2022-08-16T03:46:13.743Z,64.70
2022-08-16T03:49:00.700Z,64.90
2022-08-16T03:51:28.782Z,64.80
2022-08-16T03:54:01.183Z,65.00
2022-08-16T03:56:30.423Z,64.60
2022-08-16T03:59:01.054Z,64.60
2022-08-16T04:01:29.320Z,64.80
2022-08-16T04:03:56.841Z,64.90
2022-08-16T04:06:23.618Z,64.90
2022-08-16T04:08:50.347Z,64.60
2022-08-16T04:11:17.906Z,65.00
2022-08-16T04:13:58.747Z,65.40
2022-08-16T04:16:30.309Z,65.40
2022-08-16T04:19:02.283Z,65.20
2022-08-16T04:21:32.028Z,64.60
2022-08-16T04:23:59.359Z,64.70
2022-08-16T04:26:26.185Z,64.80
2022-08-16T04:29:16.282Z,64.70
2022-08-16T04:31:47.236Z,64.50
2022-08-16T04:34:25.055Z,64.30
2022-08-16T04:36:53.915Z,64.50
2022-08-16T04:39:23.876Z,64.50
2022-08-16T04:41:57.135Z,64.60
2022-08-16T04:44:52.656Z,65.10
2022-08-16T04:47:24.215Z,65.00
2022-08-16T04:49:52.282Z,65.80
2022-08-16T04:52:35.260Z,66.60
2022-08-16T04:55:05.893Z,66.10
2022-08-16T04:57:32.723Z,65.50
2022-08-16T04:59:59.483Z,65.50
2022-08-16T05:02:50.978Z,66.00
2022-08-16T05:05:23.820Z,65.70
2022-08-16T05:07:58.645Z,65.70
2022-08-16T05:10:27.639Z,65.80
2022-08-16T05:12:54.536Z,65.60
2022-08-16T05:15:23.802Z,65.20
2022-08-16T05:17:59.054Z,65.10
2022-08-16T05:20:38.622Z,65.70
2022-08-16T05:23:13.739Z,65.70
2022-08-16T05:25:48.405Z,66.80
2022-08-16T05:28:16.098Z,65.80
2022-08-16T05:30:43.238Z,65.80
2022-08-16T05:33:16.610Z,66.20
2022-08-16T05:35:54.584Z,66.20
2022-08-16T05:38:32.407Z,66.90
2022-08-16T05:41:06.175Z,66.70
2022-08-16T05:43:46.521Z,66.50
2022-08-16T05:46:30.467Z,66.30
2022-08-16T05:49:04.017Z,66.30
2022-08-16T05:51:38.350Z,66.80
2022-08-16T05:54:07.084Z,67.30
2022-08-16T05:56:34.292Z,68.10
2022-08-16T05:59:06.442Z,67.90
2022-08-16T06:01:37.887Z,68.20
2022-08-16T06:04:12.693Z,68.60
2022-08-16T06:06:43.429Z,68.50
2022-08-16T06:09:25.305Z,68.70
2022-08-16T06:11:52.313Z,68.60
2022-08-16T06:14:19.256Z,68.50
2022-08-16T06:16:50.928Z,68.20
2022-08-16T06:19:19.655Z,67.90
2022-08-16T06:21:55.122Z,67.80
2022-08-16T06:24:53.521Z,68.00
2022-08-16T06:27:09.648Z,67.40
2022-08-16T06:29:36.494Z,68.10
2022-08-16T06:32:04.253Z,68.00
2022-08-16T06:34:57.090Z,67.30
2022-08-16T06:37:19.294Z,67.20
2022-08-16T06:39:50.256Z,66.60
2022-08-16T06:42:18.146Z,66.70
2022-08-16T06:44:46.667Z,66.20
2022-08-16T06:47:17.108Z,66.20
2022-08-16T06:49:53.989Z,65.70
2022-08-16T06:53:08.657Z,65.30
2022-08-16T06:55:12.983Z,65.20
2022-08-16T06:57:41.133Z,64.90
2022-08-16T07:00:13.107Z,64.50
2022-08-16T07:02:52.156Z,64.00
2022-08-16T07:05:27.296Z,63.80
2022-08-16T07:08:08.158Z,63.60
2022-08-16T07:10:41.633Z,63.50
2022-08-16T07:13:14.970Z,62.80
2022-08-16T07:15:51.136Z,63.20
2022-08-16T07:18:20.573Z,62.90
2022-08-16T07:20:48.880Z,62.50
2022-08-16T07:23:16.631Z,62.50
2022-08-16T07:25:43.589Z,62.40
2022-08-16T07:28:20.583Z,62.00
2022-08-16T07:30:48.569Z,62.10
2022-08-16T07:33:16.238Z,62.00
2022-08-16T07:35:44.404Z,61.90
2022-08-16T07:38:20.071Z,61.90
2022-08-16T07:41:00.272Z,61.90
2022-08-16T07:43:28.851Z,61.90
2022-08-16T07:45:56.363Z,61.50
2022-08-16T07:48:24.086Z,61.40
2022-08-16T07:50:56.213Z,61.60
2022-08-16T07:53:28.971Z,61.60
2022-08-16T07:55:56.391Z,61.50
2022-08-16T07:58:34.094Z,61.80
2022-08-16T08:01:04.066Z,61.70
2022-08-16T08:03:35.851Z,61.50
2022-08-16T08:06:10.311Z,61.20
2022-08-16T08:08:51.668Z,60.90
2022-08-16T08:11:21.447Z,60.90
2022-08-16T08:13:49.243Z,60.80
2022-08-16T08:16:19.001Z,61.00
2022-08-16T08:18:50.250Z,61.10
2022-08-16T08:21:17.600Z,61.40
2022-08-16T08:23:46.771Z,61.00
2022-08-16T08:26:17.627Z,61.00
2022-08-16T08:28:45.321Z,61.10
2022-08-16T08:31:12.302Z,61.40
2022-08-16T08:33:47.370Z,61.20
2022-08-16T08:36:23.603Z,61.10
2022-08-16T08:38:51.688Z,61.20
2022-08-16T08:41:20.945Z,61.20
2022-08-16T08:43:54.142Z,61.30
2022-08-16T08:46:22.279Z,61.30
2022-08-16T08:48:59.503Z,61.60
2022-08-16T08:51:35.613Z,61.50
2022-08-16T08:54:06.997Z,62.40
2022-08-16T08:56:36.106Z,61.60
2022-08-16T08:59:12.949Z,61.60
2022-08-16T09:01:42.968Z,61.70
2022-08-16T09:04:23.918Z,61.80
2022-08-16T09:06:50.698Z,61.90
2022-08-16T09:09:18.944Z,61.90
2022-08-16T09:11:52.722Z,61.70
2022-08-16T09:14:24.308Z,61.80
2022-08-16T09:17:01.148Z,61.70
2022-08-16T09:19:33.090Z,61.80
2022-08-16T09:22:01.205Z,61.80
2022-08-16T09:24:52.859Z,61.80
2022-08-16T09:27:16.501Z,61.70
2022-08-16T09:29:45.247Z,61.80
2022-08-16T09:32:28.672Z,61.80
2022-08-16T09:34:58.412Z,61.80
2022-08-16T09:37:29.577Z,61.90
2022-08-16T09:39:59.629Z,62.00
2022-08-16T09:42:27.205Z,62.00
2022-08-16T09:45:11.326Z,62.00
2022-08-16T09:47:57.094Z,62.20
2022-08-16T09:50:25.783Z,62.20
2022-08-16T09:53:00.126Z,62.30
2022-08-16T09:55:28.214Z,62.30
2022-08-16T09:57:58.939Z,62.30
2022-08-16T10:00:44.393Z,62.60
2022-08-16T10:03:11.812Z,62.50
2022-08-16T10:05:38.747Z,62.60
2022-08-16T10:08:26.357Z,62.50
2022-08-16T10:10:53.890Z,62.50
2022-08-16T10:13:20.667Z,62.70
2022-08-16T10:15:55.175Z,62.70
2022-08-16T10:18:41.281Z,62.60
2022-08-16T10:21:10.093Z,62.80
2022-08-16T10:23:36.858Z,62.70
2022-08-16T10:27:16.137Z,62.70
2022-08-16T10:28:53.329Z,62.80
2022-08-16T10:31:43.787Z,63.00
2022-08-16T10:34:30.846Z,62.90
2022-08-16T10:36:55.079Z,62.90
2022-08-16T10:39:21.870Z,63.00
2022-08-16T10:41:52.577Z,63.00
2022-08-16T10:44:19.338Z,63.00
2022-08-16T10:46:46.130Z,62.90
2022-08-16T10:49:16.872Z,63.80
2022-08-16T10:52:03.059Z,62.80
2022-08-16T10:54:32.640Z,62.80
2022-08-16T10:57:04.267Z,62.70
2022-08-16T10:59:44.916Z,62.70
2022-08-16T11:02:59.267Z,62.80
2022-08-16T11:05:08.257Z,62.80
2022-08-16T11:07:45.574Z,63.00
2022-08-16T11:19:06.289Z,62.70
2022-08-16T11:22:22.984Z,62.70
2022-08-16T11:24:39.856Z,62.70
2022-08-16T11:27:23.711Z,62.70
2022-08-16T11:29:55.227Z,62.60
2022-08-16T11:32:30.354Z,62.50
2022-08-16T11:35:13.176Z,62.40
2022-08-16T11:40:33.495Z,62.10
2022-08-16T11:43:04.606Z,62.00
2022-08-16T11:45:33.914Z,62.00
2022-08-16T11:48:02.468Z,61.80
2022-08-16T11:50:29.257Z,61.90
2022-08-16T11:52:55.988Z,62.00
2022-08-16T11:55:23.532Z,62.00
2022-08-16T11:57:56.348Z,62.00
2022-08-16T12:00:33.919Z,62.00
2022-08-16T12:03:12.859Z,62.00
2022-08-16T12:05:43.680Z,62.10
2022-08-16T12:08:11.453Z,62.00
2022-08-16T12:10:40.797Z,62.00
2022-08-16T12:13:10.826Z,62.70
2022-08-16T12:15:38.311Z,61.80
2022-08-16T12:18:07.019Z,61.90
2022-08-16T12:20:40.424Z,61.90
2022-08-16T12:23:07.786Z,61.90
2022-08-16T12:25:35.379Z,61.70
2022-08-16T12:28:04.213Z,61.90
2022-08-16T12:30:38.433Z,61.80
2022-08-16T12:33:07.731Z,61.80
2022-08-16T12:35:38.230Z,61.80
2022-08-16T12:38:08.868Z,61.70
2022-08-16T12:40:57.175Z,61.80
2022-08-16T12:43:24.973Z,61.80
2022-08-16T12:45:54.298Z,61.80
2022-08-16T12:48:42.279Z,61.80
2022-08-16T12:51:20.055Z,61.80
2022-08-16T12:53:52.101Z,61.80
2022-08-16T12:56:20.583Z,61.70
2022-08-16T12:58:50.599Z,61.70
2022-08-16T13:01:19.651Z,61.70
2022-08-16T13:03:55.898Z,61.70
2022-08-16T13:06:37.729Z,61.60
2022-08-16T13:09:06.856Z,61.50
2022-08-16T13:11:39.016Z,61.40
2022-08-16T13:14:30.922Z,61.50
2022-08-16T13:17:00.726Z,61.40
2022-08-16T13:19:44.193Z,61.30
2022-08-16T13:22:19.866Z,60.90
2022-08-16T13:24:46.771Z,61.10
2022-08-16T13:27:13.897Z,60.40
2022-08-16T13:29:44.056Z,56.40
2022-08-16T13:32:39.826Z,56.30
2022-08-16T13:34:58.225Z,56.60
2022-08-16T13:37:29.406Z,55.10
2022-08-16T13:39:56.227Z,55.90
2022-08-16T13:42:23.085Z,56.80
2022-08-16T13:44:56.222Z,57.20
2022-08-16T13:47:24.920Z,57.70
2022-08-16T13:49:56.879Z,58.60
2022-08-16T13:52:23.975Z,58.30
2022-08-16T13:54:53.234Z,58.40
2022-08-16T13:57:19.981Z,58.70
2022-08-16T13:59:50.060Z,58.80
2022-08-16T14:02:17.096Z,58.90
2022-08-16T14:04:45.004Z,58.90
2022-08-16T14:07:24.310Z,58.70
2022-08-16T14:09:55.209Z,58.80
2022-08-16T14:12:24.236Z,58.70
2022-08-16T14:14:54.480Z,58.80
2022-08-16T14:17:24.949Z,58.90
2022-08-16T14:19:53.038Z,58.80
2022-08-16T14:22:30.735Z,58.90
2022-08-16T14:25:00.708Z,59.00
2022-08-16T14:27:30.387Z,59.10
2022-08-16T14:29:58.186Z,59.20
2022-08-16T14:32:34.051Z,59.20
2022-08-16T14:35:03.698Z,59.20
2022-08-16T14:37:31.827Z,59.10
2022-08-16T14:40:00.399Z,59.00
2022-08-16T14:42:27.226Z,58.90
2022-08-16T14:44:54.171Z,58.90
2022-08-16T14:47:21.402Z,58.90
2022-08-16T14:49:48.168Z,59.00
2022-08-16T14:52:44.353Z,58.90
2022-08-16T14:55:11.759Z,58.80
2022-08-16T14:57:39.279Z,58.80
2022-08-16T15:00:09.927Z,58.60
2022-08-16T15:02:38.901Z,58.70
2022-08-16T15:05:10.291Z,58.50
2022-08-16T15:07:40.199Z,58.50
2022-08-16T15:10:08.696Z,58.50
2022-08-16T15:12:50.443Z,58.60
2022-08-16T15:15:18.788Z,58.60
2022-08-16T15:17:55.975Z,58.50
2022-08-16T15:20:26.482Z,58.50
2022-08-16T15:22:54.132Z,58.40
2022-08-16T15:25:29.059Z,58.30
2022-08-16T15:27:58.060Z,58.00
2022-08-16T15:30:56.677Z,57.50
2022-08-16T15:33:15.536Z,57.60
2022-08-16T15:35:42.791Z,57.60
2022-08-16T15:38:10.526Z,57.50
2022-08-16T15:40:59.132Z,57.40
2022-08-16T15:43:39.240Z,57.40
2022-08-16T15:46:07.500Z,57.40
2022-08-16T15:48:35.572Z,57.40
2022-08-16T15:51:07.881Z,57.30
2022-08-16T15:53:37.600Z,57.30
2022-08-16T15:56:09.191Z,57.30
2022-08-16T15:58:40.239Z,57.20
2022-08-16T16:01:10.194Z,57.20
2022-08-16T16:03:37.095Z,57.20
2022-08-16T16:06:04.282Z,57.20
2022-08-16T16:08:32.314Z,57.20
2022-08-16T16:11:01.189Z,57.10
2022-08-16T16:13:30.536Z,57.00
2022-08-16T16:16:01.602Z,56.90
2022-08-16T16:18:30.138Z,56.90
2022-08-16T16:21:03.100Z,56.70
2022-08-16T16:23:32.383Z,56.40
2022-08-16T16:26:00.162Z,56.50
2022-08-16T16:29:06.291Z,56.50
2022-08-16T16:31:21.800Z,56.50
2022-08-16T16:33:51.475Z,56.40
2022-08-16T16:36:21.431Z,56.30
2022-08-16T16:38:51.471Z,56.40
2022-08-16T16:41:20.377Z,56.30
2022-08-16T16:43:53.509Z,56.10
2022-08-16T16:46:40.674Z,56.50
2022-08-16T16:49:12.462Z,55.80
2022-08-16T16:51:44.635Z,55.90
2022-08-16T16:54:27.769Z,55.70
2022-08-16T16:56:55.714Z,55.60
2022-08-16T16:59:22.472Z,55.40
2022-08-16T17:01:59.737Z,55.60
2022-08-16T17:04:38.035Z,55.50
2022-08-16T17:07:10.786Z,55.50
2022-08-16T17:09:40.133Z,55.60
2022-08-16T17:12:08.877Z,55.60
2022-08-16T17:14:35.916Z,55.50
2022-08-16T17:17:08.604Z,55.40
2022-08-16T17:19:41.077Z,55.20
2022-08-16T17:22:14.971Z,54.80
2022-08-16T17:24:45.400Z,55.10
2022-08-16T17:27:18.259Z,55.10
2022-08-16T17:29:46.018Z,55.00
2022-08-16T17:32:34.010Z,54.90
2022-08-16T17:35:10.314Z,54.70
2022-08-16T17:37:42.204Z,54.60
2022-08-16T17:40:23.284Z,54.40
2022-08-16T17:43:02.435Z,53.90
2022-08-16T17:45:29.263Z,53.60
2022-08-16T17:47:57.361Z,53.10
2022-08-16T17:50:24.288Z,53.00
2022-08-16T17:52:53.365Z,52.70
2022-08-16T17:55:23.246Z,52.90
2022-08-16T17:57:50.132Z,52.50
2022-08-16T18:00:20.349Z,52.60
2022-08-16T18:02:48.220Z,52.80
2022-08-16T18:05:17.768Z,52.60
2022-08-16T18:07:44.758Z,52.70
2022-08-16T18:10:12.929Z,52.60
2022-08-16T18:12:54.720Z,52.50
2022-08-16T18:15:24.336Z,52.40
2022-08-16T18:17:51.666Z,52.20
2022-08-16T18:20:21.647Z,52.00
2022-08-16T18:22:48.586Z,51.40
2022-08-16T18:25:15.453Z,51.20
2022-08-16T18:27:42.410Z,50.90
2022-08-16T18:30:09.843Z,51.40
2022-08-16T18:32:36.589Z,51.70
2022-08-16T18:35:03.707Z,51.80
2022-08-16T18:37:31.761Z,51.60
2022-08-16T18:40:00.760Z,51.80
2022-08-16T18:42:27.718Z,51.50
2022-08-16T18:44:54.458Z,51.10
2022-08-16T18:47:21.195Z,51.00
2022-08-16T18:49:47.918Z,50.90
2022-08-16T18:52:15.146Z,51.30
2022-08-16T18:55:02.674Z,51.30
2022-08-16T18:57:40.896Z,51.40
2022-08-16T19:00:10.100Z,51.30
2022-08-16T19:02:57.397Z,51.40
2022-08-16T19:05:26.540Z,51.60
2022-08-16T19:07:53.383Z,51.90
2022-08-16T19:10:21.837Z,52.00
2022-08-16T19:12:48.658Z,52.20
2022-08-16T19:15:18.795Z,52.40
2022-08-16T19:17:45.989Z,52.50
2022-08-16T19:20:15.203Z,53.50
2022-08-16T19:25:48.714Z,53.00
2022-08-16T19:28:49.423Z,53.00
2022-08-16T19:31:16.250Z,52.70
2022-08-16T19:33:54.066Z,52.70
2022-08-16T19:36:30.970Z,52.70
2022-08-16T19:39:04.904Z,52.80
2022-08-16T19:41:35.052Z,52.70
2022-08-16T19:44:02.102Z,52.80
2022-08-16T19:46:28.944Z,52.90
2022-08-16T19:48:56.062Z,52.80
2022-08-16T19:51:23.347Z,52.80
2022-08-16T19:53:50.092Z,52.90
2022-08-16T19:56:16.955Z,53.10
2022-08-16T19:59:15.953Z,53.10
2022-08-16T20:01:31.835Z,53.40
2022-08-16T20:03:58.588Z,53.60
2022-08-16T20:06:37.795Z,53.50
2022-08-16T20:09:06.020Z,53.50
2022-08-16T20:11:32.813Z,53.60
2022-08-16T20:14:01.008Z,53.60
2022-08-16T20:16:27.828Z,53.40
2022-08-16T20:18:54.565Z,54.10
2022-08-16T20:21:21.361Z,53.40
2022-08-16T20:23:48.154Z,53.50
2022-08-16T20:26:14.903Z,53.70
2022-08-16T20:28:54.271Z,54.10
2022-08-16T20:31:23.552Z,54.20
2022-08-16T20:33:50.434Z,54.00
2022-08-16T20:36:17.273Z,54.00
2022-08-16T20:38:44.385Z,54.30
2022-08-16T20:41:11.268Z,54.20
2022-08-16T20:43:38.159Z,54.30
2022-08-16T20:46:05.106Z,54.80
2022-08-16T20:48:33.207Z,54.90
2022-08-16T20:50:59.950Z,54.70
2022-08-16T20:53:26.678Z,54.80
2022-08-16T20:55:53.435Z,55.00
2022-08-16T20:58:20.237Z,54.80
2022-08-16T21:00:47.170Z,54.90
2022-08-16T21:03:14.139Z,54.90
2022-08-16T21:05:42.259Z,54.90
2022-08-16T21:08:51.167Z,54.90
2022-08-16T21:10:57.282Z,54.80
2022-08-16T21:13:24.685Z,54.70
2022-08-16T21:15:51.525Z,55.40
2022-08-16T21:18:18.336Z,56.00
2022-08-16T21:20:46.428Z,55.60
2022-08-16T21:23:13.393Z,55.50
2022-08-16T21:25:58.106Z,56.00
2022-08-16T21:28:42.046Z,56.30
2022-08-16T21:31:10.055Z,55.90
2022-08-16T21:33:36.887Z,55.70
2022-08-16T21:36:05.611Z,55.60
2022-08-16T21:38:32.519Z,55.70
2022-08-16T21:40:59.884Z,55.80
2022-08-16T21:43:27.264Z,55.70
2022-08-16T21:45:56.002Z,56.00
2022-08-16T21:48:35.030Z,56.40
2022-08-16T21:51:06.454Z,56.10
2022-08-16T21:53:33.975Z,55.80
2022-08-16T21:56:01.634Z,56.10
2022-08-16T21:58:29.528Z,56.00
2022-08-16T22:00:56.636Z,56.20
2022-08-16T22:03:23.875Z,56.00
2022-08-16T22:05:59.970Z,56.00
2022-08-16T22:08:49.119Z,56.10
2022-08-16T22:11:16.752Z,55.80
2022-08-16T22:13:43.491Z,56.00
2022-08-16T22:16:18.178Z,55.90
2022-08-16T22:18:52.178Z,55.80
2022-08-16T22:21:19.468Z,56.10
2022-08-16T22:23:57.040Z,55.90
2022-08-16T22:26:30.204Z,56.00
2022-08-16T22:28:58.234Z,56.00
2022-08-16T22:31:25.055Z,56.00
2022-08-16T22:33:51.806Z,55.90
2022-08-16T22:36:18.572Z,56.40
2022-08-16T22:38:55.040Z,56.50
2022-08-16T22:41:25.013Z,56.50
2022-08-16T22:43:52.153Z,56.60
2022-08-16T22:46:19.206Z,56.30
2022-08-16T22:48:46.584Z,56.40
2022-08-16T22:51:13.340Z,56.50
2022-08-16T22:53:40.098Z,56.60
2022-08-16T22:56:08.627Z,56.70
2022-08-16T22:58:36.864Z,56.60
2022-08-16T23:01:04.358Z,56.70
2022-08-16T23:03:31.231Z,56.70
2022-08-16T23:05:59.072Z,56.80
2022-08-16T23:08:38.582Z,56.80
2022-08-16T23:11:08.748Z,56.70
2022-08-16T23:13:35.626Z,56.50
2022-08-16T23:16:11.410Z,56.60
2022-08-16T23:18:38.952Z,56.70
2022-08-16T23:21:09.572Z,56.60
2022-08-16T23:23:38.100Z,56.70
2022-08-16T23:26:43.815Z,56.80
2022-08-16T23:28:54.277Z,56.80
2022-08-16T23:31:21.024Z,56.80
2022-08-16T23:33:47.787Z,57.00
2022-08-16T23:36:14.611Z,57.10
2022-08-16T23:38:41.392Z,57.20
2022-08-16T23:41:11.809Z,58.00
2022-08-16T23:43:40.478Z,57.10
2022-08-16T23:46:10.377Z,57.20
2022-08-16T23:50:01.898Z,57.30
2022-08-16T23:51:24.433Z,57.30
2022-08-16T23:53:51.218Z,57.20
2022-08-16T23:56:20.015Z,57.10
2022-08-16T23:58:48.688Z,57.10
